首页
METAR-TAF:

METAR-TAF

机场 :

Tri-Township Airport

大草原, 伊利诺伊州, 美国

纬度: 42-02-45N, 经度: 090-06-28W, 海拔: 188米

当前天气观测

该预报发布于15分钟前的07:55 UTC
风速11节,风向西,有时为17节阵风
温度 -10°C
湿度 72%
气压 1017 hPa
能見度: 16.1公里
散云层高于1400英尺
阴天层高于4700英尺

METAR: KSFY 100755Z AUTO 27011G17KT 10SM SCT014 OVC047 M10/M14 A3004 RMK AO2

时间: 02:10 (08:10 UTC)


TAF: 丢失

超过4000个机场的气象观测和天气预报(METAR&TAF报告)。

可查询的气象台以黄色和红色小点在地图上表示。

将鼠标移到小点上方,可查看气象台名称。

然后点击查看天气观测和预报。

如需切换地图:点击带黑十字的绿色按钮放大地图;点击带横线的绿色按钮缩小地图;或者点击绿色箭头查看邻近地区的地图。


METAR-TAF: